Time;durP1;ratioP1;P1;durP2;ratioP2;P2;SDS_P1;SDS_P2;PMS_P1;PMS_P2;Temp;Humidity;BMP_temperature;BMP_pressure;BME280_temperature;BME280_humidity;BME280_pressure;Samples;Min_cycle;Max_cycle;Signal;HPM_P1;HPM_P2
2023/08/11 00:00:43;;;;;;;170.32;80.22;;;24.30;72.10;;;;;;5065791;28;20040;-35
2023/08/11 00:03:09;;;;;;;143.93;68.75;;;24.30;72.00;;;;;;5074974;28;20102;-36
2023/08/11 00:05:38;;;;;;;147.60;69.67;;;24.30;71.90;;;;;;5072297;28;20037;-35
2023/08/11 00:08:08;;;;;;;133.32;65.38;;;24.30;71.40;;;;;;5068354;28;20088;-35
2023/08/11 00:10:34;;;;;;;116.03;56.88;;;24.30;70.80;;;;;;5061928;28;20196;-35
2023/08/11 00:13:01;;;;;;;134.95;63.08;;;24.30;69.60;;;;;;5062471;28;20021;-36
2023/08/11 00:15:31;;;;;;;135.30;63.40;;;24.30;70.60;;;;;;5051218;28;20038;-36
2023/08/11 00:18:00;;;;;;;130.95;62.33;;;24.30;71.20;;;;;;5053368;28;20033;-36
2023/08/11 00:20:30;;;;;;;126.72;60.17;;;24.30;71.40;;;;;;5038699;28;20040;-36
2023/08/11 00:22:56;;;;;;;130.18;60.63;;;24.30;71.30;;;;;;5060865;28;20484;-35
2023/08/11 00:25:23;;;;;;;120.43;56.03;;;24.30;71.10;;;;;;5057762;28;20037;-35
2023/08/11 00:27:49;;;;;;;98.40;49.50;;;24.30;71.10;;;;;;5042112;28;20026;-36
2023/08/11 00:30:16;;;;;;;99.55;49.13;;;24.30;71.10;;;;;;5066155;28;20155;-35
2023/08/11 00:32:42;;;;;;;98.30;50.13;;;24.30;70.40;;;;;;5057072;28;20079;-35
2023/08/11 00:35:08;;;;;;;94.53;46.20;;;24.30;71.10;;;;;;5069405;28;20098;-36
2023/08/11 00:37:34;;;;;;;99.20;49.93;;;24.30;71.30;;;;;;5062342;28;20036;-35
2023/08/11 00:40:00;;;;;;;93.13;47.03;;;24.20;71.30;;;;;;5066372;28;20021;-36
2023/08/11 00:42:27;;;;;;;80.93;41.13;;;24.30;72.10;;;;;;5057385;28;20048;-35
2023/08/11 00:44:53;;;;;;;70.80;35.55;;;24.30;71.10;;;;;;5059261;28;20032;-35
2023/08/11 00:47:19;;;;;;;65.10;34.37;;;24.30;70.80;;;;;;5064460;28;20020;-35
2023/08/11 00:49:45;;;;;;;57.58;32.53;;;24.30;70.40;;;;;;5037751;28;20097;-35
2023/08/11 00:52:11;;;;;;;78.88;39.13;;;24.20;69.20;;;;;;5061006;28;20103;-36
2023/08/11 00:54:39;;;;;;;74.03;37.77;;;24.30;70.30;;;;;;5064939;28;20025;-36
2023/08/11 00:57:05;;;;;;;74.55;37.90;;;24.30;70.90;;;;;;5048937;28;20047;-36
2023/08/11 00:59:31;;;;;;;66.85;35.67;;;24.20;70.80;;;;;;5063431;28;20021;-35
2023/08/11 01:01:57;;;;;;;71.15;36.30;;;24.20;70.80;;;;;;5034975;28;20051;-36
2023/08/11 01:04:24;;;;;;;65.70;34.75;;;24.30;71.00;;;;;;5059493;28;20132;-35
2023/08/11 01:07:09;;;;;;;64.97;33.30;;;24.30;71.00;;;;;;5061384;28;20041;-35
2023/08/11 01:10:03;;;;;;;45.95;24.98;;;24.30;70.80;;;;;;5054020;28;20029;-36
2023/08/11 01:12:32;;;;;;;41.70;22.98;;;24.20;70.50;;;;;;5066938;28;20043;-35
2023/08/11 01:15:17;;;;;;;46.33;24.95;;;24.20;69.90;;;;;;5045904;28;20032;-36
2023/08/11 01:17:43;;;;;;;50.03;27.80;;;24.20;70.30;;;;;;5068991;28;20021;-36
2023/08/11 01:20:10;;;;;;;49.17;27.15;;;24.20;70.70;;;;;;5026770;28;20036;-36
2023/08/11 01:22:38;;;;;;;48.00;25.63;;;24.20;70.80;;;;;;5047121;28;20056;-36
2023/08/11 01:25:06;;;;;;;46.50;24.40;;;24.20;70.70;;;;;;5054252;28;20055;-36
2023/08/11 01:27:36;;;;;;;48.58;25.60;;;24.20;70.60;;;;;;5058490;28;20043;-35
2023/08/11 01:30:06;;;;;;;46.55;24.25;;;24.20;70.50;;;;;;5055056;28;20040;-36
2023/08/11 01:32:32;;;;;;;42.28;23.30;;;24.20;70.60;;;;;;5064642;28;20055;-36
2023/08/11 01:34:58;;;;;;;39.13;22.73;;;24.20;70.60;;;;;;5068642;28;20047;-35
2023/08/11 01:37:25;;;;;;;42.13;23.00;;;24.20;70.60;;;;;;5058242;28;20036;-36
2023/08/11 01:39:51;;;;;;;39.43;22.03;;;24.20;70.80;;;;;;5056626;28;20131;-36
2023/08/11 01:42:17;;;;;;;34.53;19.98;;;24.20;70.90;;;;;;5065512;28;20047;-36
2023/08/11 01:44:43;;;;;;;36.85;19.33;;;24.30;71.70;;;;;;5068756;28;20135;-36
2023/08/11 01:47:09;;;;;;;34.07;18.93;;;24.30;71.00;;;;;;5043803;28;20021;-35
2023/08/11 01:49:35;;;;;;;29.73;16.63;;;24.20;71.10;;;;;;5045701;28;20051;-36
2023/08/11 01:52:03;;;;;;;29.20;16.85;;;24.30;71.20;;;;;;5066937;28;20062;-35
2023/08/11 01:54:29;;;;;;;35.45;18.30;;;24.30;71.20;;;;;;5069076;28;20770;-35
2023/08/11 01:56:56;;;;;;;29.83;17.10;;;24.30;71.30;;;;;;5043592;28;20096;-36
2023/08/11 01:59:22;;;;;;;28.70;16.35;;;24.30;71.30;;;;;;5032907;28;20282;-35
2023/08/11 02:01:48;;;;;;;33.13;17.70;;;24.30;71.30;;;;;;5046954;28;20029;-35
2023/08/11 02:04:15;;;;;;;30.90;16.93;;;24.30;71.40;;;;;;5062001;28;20048;-35
2023/08/11 02:06:41;;;;;;;29.35;15.82;;;24.30;71.50;;;;;;5062304;28;20029;-35
2023/08/11 02:09:12;;;;;;;29.13;16.35;;;24.30;71.60;;;;;;5066676;28;20046;-36
2023/08/11 02:11:39;;;;;;;25.23;14.13;;;24.30;71.60;;;;;;5062660;28;20033;-36
2023/08/11 02:14:05;;;;;;;23.05;13.70;;;24.30;71.70;;;;;;5061381;28;20485;-36
2023/08/11 02:16:32;;;;;;;25.10;14.85;;;24.40;71.70;;;;;;5065346;28;20093;-41
2023/08/11 02:18:59;;;;;;;21.88;12.35;;;24.40;71.80;;;;;;5058098;28;20035;-36
2023/08/11 02:21:26;;;;;;;21.88;12.75;;;24.30;71.70;;;;;;5066150;28;20037;-36
2023/08/11 02:23:52;;;;;;;22.42;12.98;;;24.40;71.80;;;;;;5065766;28;20041;-36
2023/08/11 02:26:19;;;;;;;18.85;10.88;;;24.40;71.90;;;;;;5072941;28;20024;-35
2023/08/11 02:28:45;;;;;;;19.98;11.85;;;24.40;71.90;;;;;;5061951;28;20096;-36
2023/08/11 02:31:11;;;;;;;17.77;10.73;;;24.40;71.90;;;;;;5069003;28;20032;-36
2023/08/11 02:33:37;;;;;;;17.63;11.10;;;24.40;72.10;;;;;;5055329;28;20053;-35
2023/08/11 02:36:04;;;;;;;17.20;10.40;;;24.40;72.00;;;;;;5062125;28;20033;-35
2023/08/11 02:38:33;;;;;;;16.85;9.90;;;24.40;72.10;;;;;;5059021;28;20071;-35
2023/08/11 02:40:59;;;;;;;16.60;10.82;;;24.40;72.20;;;;;;5056849;28;20141;-36
2023/08/11 02:43:25;;;;;;;16.33;10.43;;;24.40;72.20;;;;;;5069962;28;20045;-35
2023/08/11 02:45:53;;;;;;;14.65;9.15;;;24.40;72.30;;;;;;5065781;28;20049;-35
2023/08/11 02:48:19;;;;;;;13.40;8.52;;;24.40;72.20;;;;;;5068867;28;20036;-35
2023/08/11 02:50:46;;;;;;;12.88;8.10;;;24.40;72.40;;;;;;5062202;28;20041;-36
2023/08/11 02:53:12;;;;;;;13.35;8.32;;;24.50;72.60;;;;;;5067082;28;20025;-35
2023/08/11 02:55:38;;;;;;;11.73;8.17;;;24.50;72.70;;;;;;5069348;28;20133;-35
2023/08/11 02:58:04;;;;;;;9.75;6.50;;;24.50;72.70;;;;;;5061930;28;20486;-36
2023/08/11 03:00:33;;;;;;;10.30;7.78;;;24.50;72.70;;;;;;5060919;28;20075;-35
2023/08/11 03:03:01;;;;;;;10.70;7.55;;;24.50;72.80;;;;;;5063738;28;20025;-35
2023/08/11 03:05:27;;;;;;;12.00;8.10;;;24.50;72.80;;;;;;5058058;28;20062;-35
2023/08/11 03:07:54;;;;;;;11.37;7.50;;;24.50;72.90;;;;;;5062614;28;20017;-35
2023/08/11 03:10:20;;;;;;;11.27;7.53;;;24.50;72.80;;;;;;5054888;28;20030;-35
2023/08/11 03:12:47;;;;;;;9.30;7.18;;;24.50;72.80;;;;;;5058757;28;20040;-35
2023/08/11 03:15:13;;;;;;;8.90;6.57;;;24.50;72.80;;;;;;5061985;28;20033;-35
2023/08/11 03:17:39;;;;;;;10.15;7.00;;;24.50;72.80;;;;;;5073798;28;20115;-36
2023/08/11 03:20:11;;;;;;;8.27;6.20;;;24.50;72.80;;;;;;5060244;28;20133;-35
2023/08/11 03:22:38;;;;;;;9.35;6.55;;;24.50;72.80;;;;;;5063218;28;20024;-35
2023/08/11 03:25:04;;;;;;;9.95;6.60;;;24.50;72.70;;;;;;5061608;28;20059;-36
2023/08/11 03:27:30;;;;;;;11.05;6.80;;;24.50;72.60;;;;;;5059064;28;20474;-36
2023/08/11 03:29:56;;;;;;;9.57;6.00;;;24.50;72.60;;;;;;5069836;28;20037;-36
2023/08/11 03:32:23;;;;;;;8.43;6.38;;;24.50;72.60;;;;;;5062566;28;20098;-35
2023/08/11 03:34:49;;;;;;;8.40;5.97;;;24.50;72.60;;;;;;5058735;28;20051;-36
2023/08/11 03:37:15;;;;;;;7.75;5.70;;;24.50;72.50;;;;;;5058704;28;20052;-35
2023/08/11 03:39:41;;;;;;;8.35;5.28;;;24.50;72.40;;;;;;5070380;28;20136;-36
2023/08/11 03:42:07;;;;;;;9.40;5.50;;;24.50;72.40;;;;;;5072432;28;20057;-35
2023/08/11 03:44:33;;;;;;;7.63;5.78;;;24.50;72.40;;;;;;5058752;28;20067;-35
2023/08/11 03:47:00;;;;;;;7.20;5.30;;;24.50;72.30;;;;;;5057784;28;20048;-35
2023/08/11 03:49:26;;;;;;;7.13;5.35;;;24.50;72.30;;;;;;5043691;28;20036;-35
2023/08/11 03:51:52;;;;;;;6.72;5.45;;;24.50;72.30;;;;;;5049766;28;20152;-36
2023/08/11 03:54:18;;;;;;;8.10;5.72;;;24.50;72.40;;;;;;5071104;28;20033;-36
2023/08/11 03:56:44;;;;;;;5.95;4.85;;;24.50;72.30;;;;;;5066363;28;20029;-35
2023/08/11 03:59:11;;;;;;;7.00;5.10;;;24.50;72.40;;;;;;5064298;28;20036;-35
2023/08/11 04:01:37;;;;;;;6.72;5.13;;;24.50;72.50;;;;;;5071430;28;20028;-35
2023/08/11 04:04:03;;;;;;;6.22;5.45;;;24.50;72.50;;;;;;5065145;28;20083;-36
2023/08/11 04:06:32;;;;;;;6.33;5.13;;;24.50;72.50;;;;;;5062034;28;20023;-35
2023/08/11 04:09:02;;;;;;;5.93;5.03;;;24.50;72.50;;;;;;5064616;28;20286;-36
2023/08/11 04:11:29;;;;;;;6.15;5.15;;;24.50;72.70;;;;;;5063998;28;20504;-35
2023/08/11 04:13:56;;;;;;;7.22;5.63;;;24.50;72.60;;;;;;5061878;28;20104;-36
2023/08/11 04:16:22;;;;;;;6.03;4.50;;;24.50;72.70;;;;;;5060281;28;20021;-36
2023/08/11 04:18:48;;;;;;;6.13;4.40;;;24.50;72.60;;;;;;5080205;28;20543;-36
2023/08/11 04:21:14;;;;;;;5.53;4.97;;;24.50;72.60;;;;;;5068646;28;20020;-35
2023/08/11 04:23:40;;;;;;;6.47;4.63;;;24.50;72.50;;;;;;5071544;28;20024;-36
2023/08/11 04:26:06;;;;;;;6.85;4.88;;;24.50;72.50;;;;;;5056778;28;20792;-35
2023/08/11 04:28:33;;;;;;;4.90;4.30;;;24.50;72.50;;;;;;5064542;28;20052;-35
2023/08/11 04:31:00;;;;;;;5.60;4.80;;;24.50;72.60;;;;;;5061785;28;20020;-36
2023/08/11 04:33:26;;;;;;;5.53;4.55;;;24.50;72.60;;;;;;5059336;28;20049;-35
2023/08/11 04:35:53;;;;;;;5.03;4.00;;;24.50;72.50;;;;;;5049698;28;20024;-35
2023/08/11 04:38:20;;;;;;;5.70;4.97;;;24.50;72.60;;;;;;5070644;28;20382;-35
2023/08/11 04:40:50;;;;;;;5.80;3.92;;;24.50;73.40;;;;;;5070080;28;20057;-35
2023/08/11 04:43:18;;;;;;;4.28;3.70;;;24.50;72.60;;;;;;5063595;28;20102;-35
2023/08/11 04:45:45;;;;;;;4.80;3.90;;;24.50;72.60;;;;;;5064834;28;20061;-36
2023/08/11 04:48:11;;;;;;;5.18;3.80;;;24.50;72.60;;;;;;5050041;28;20040;-35
2023/08/11 04:50:37;;;;;;;4.10;3.53;;;24.50;72.70;;;;;;5065460;28;20155;-35
2023/08/11 04:53:03;;;;;;;4.55;3.95;;;24.50;72.70;;;;;;5063982;28;20024;-35
2023/08/11 04:55:31;;;;;;;3.70;3.40;;;24.50;72.70;;;;;;5060717;28;20028;-35
2023/08/11 04:57:57;;;;;;;5.10;3.67;;;24.50;72.70;;;;;;5065149;28;20092;-35
2023/08/11 05:00:24;;;;;;;4.88;3.70;;;24.50;72.70;;;;;;5074067;28;20032;-36
2023/08/11 05:02:52;;;;;;;3.78;3.42;;;24.50;72.60;;;;;;5075153;28;20587;-35
2023/08/11 05:05:19;;;;;;;4.60;3.50;;;24.50;72.60;;;;;;5060400;28;20033;-35
2023/08/11 05:07:46;;;;;;;4.20;3.58;;;24.50;72.60;;;;;;5060419;28;20041;-36
2023/08/11 05:10:13;;;;;;;4.68;3.78;;;24.50;72.70;;;;;;5065670;28;20031;-36
2023/08/11 05:12:39;;;;;;;3.55;3.22;;;24.50;72.70;;;;;;5058029;28;20029;-35
2023/08/11 05:15:06;;;;;;;3.77;3.33;;;24.50;72.70;;;;;;5063545;28;20053;-36
2023/08/11 05:17:32;;;;;;;4.00;3.28;;;24.50;72.70;;;;;;5070253;28;20035;-35
2023/08/11 05:19:58;;;;;;;3.33;2.93;;;24.50;72.80;;;;;;5056549;28;20143;-35
2023/08/11 05:22:25;;;;;;;3.73;3.43;;;24.50;72.80;;;;;;5070397;28;20060;-35
2023/08/11 05:24:51;;;;;;;4.68;3.30;;;24.50;72.90;;;;;;5071877;28;20044;-35
2023/08/11 05:27:17;;;;;;;4.00;3.10;;;24.50;73.00;;;;;;5071750;28;20103;-35
2023/08/11 05:29:47;;;;;;;3.10;2.72;;;24.50;73.00;;;;;;5071418;28;20028;-35
2023/08/11 05:32:13;;;;;;;3.42;2.92;;;24.50;73.00;;;;;;5067848;28;20104;-36
2023/08/11 05:34:39;;;;;;;3.40;2.90;;;24.50;73.10;;;;;;5058292;28;20033;-36
2023/08/11 05:37:05;;;;;;;2.60;2.40;;;24.50;73.10;;;;;;5068230;28;20127;-36
2023/08/11 05:39:32;;;;;;;3.28;2.97;;;24.50;73.10;;;;;;5071221;28;20818;-35
2023/08/11 05:41:58;;;;;;;3.67;2.88;;;24.50;73.10;;;;;;5073474;28;20077;-36
2023/08/11 05:44:24;;;;;;;3.25;2.75;;;24.50;73.80;;;;;;5066061;28;20140;-35
2023/08/11 05:46:51;;;;;;;3.97;2.90;;;24.50;73.20;;;;;;5060482;28;20028;-35
2023/08/11 05:49:17;;;;;;;4.77;3.30;;;24.50;73.10;;;;;;5071282;28;20037;-35
2023/08/11 05:51:43;;;;;;;3.38;3.00;;;24.50;73.10;;;;;;5062890;28;20088;-35
2023/08/11 05:54:09;;;;;;;3.17;2.83;;;24.50;73.10;;;;;;5057365;28;20381;-35
2023/08/11 05:56:35;;;;;;;4.30;2.90;;;24.50;73.10;;;;;;5070723;28;20029;-35
2023/08/11 05:59:01;;;;;;;3.83;2.73;;;24.50;73.10;;;;;;5063187;28;20162;-36
2023/08/11 06:01:28;;;;;;;3.55;2.72;;;24.50;73.20;;;;;;5062058;28;20055;-35
2023/08/11 06:03:54;;;;;;;3.75;3.00;;;24.50;73.20;;;;;;5066188;28;20067;-35
2023/08/11 06:06:20;;;;;;;2.70;2.50;;;24.40;73.10;;;;;;5043842;28;20735;-35
2023/08/11 06:08:46;;;;;;;2.78;2.45;;;24.50;73.30;;;;;;5069101;28;20029;-36
2023/08/11 06:11:12;;;;;;;3.03;2.73;;;24.40;73.20;;;;;;5064318;28;20029;-35
2023/08/11 06:13:38;;;;;;;2.67;2.47;;;24.40;73.40;;;;;;5065129;28;20036;-35
2023/08/11 06:16:04;;;;;;;2.95;2.45;;;24.40;73.40;;;;;;5064531;28;20124;-35
2023/08/11 06:18:31;;;;;;;2.80;2.50;;;24.40;73.30;;;;;;5055800;28;20027;-35
2023/08/11 06:20:57;;;;;;;3.17;2.75;;;24.40;73.40;;;;;;5054993;28;20029;-36
2023/08/11 06:23:23;;;;;;;2.78;2.58;;;24.40;73.30;;;;;;5069570;28;20035;-35
2023/08/11 06:25:49;;;;;;;2.67;2.47;;;24.40;73.50;;;;;;5062662;28;20059;-35
2023/08/11 06:28:16;;;;;;;3.10;2.38;;;24.40;73.50;;;;;;5056175;28;20049;-35
2023/08/11 06:30:42;;;;;;;;;;;24.40;73.40;;;;;;5061133;28;20031;-35
2023/08/11 06:33:08;;;;;;;2.35;2.15;;;24.40;73.50;;;;;;5054897;28;19955;-35
2023/08/11 06:35:35;;;;;;;3.30;2.63;;;24.40;73.50;;;;;;5066418;28;20036;-36
2023/08/11 06:38:01;;;;;;;2.50;2.30;;;24.40;73.50;;;;;;5054382;28;20013;-35
2023/08/11 06:40:27;;;;;;;2.92;2.63;;;24.40;73.50;;;;;;5060747;28;20116;-35
2023/08/11 06:42:53;;;;;;;2.80;2.60;;;24.40;73.50;;;;;;5056010;28;20039;-35
2023/08/11 06:45:19;;;;;;;4.00;2.13;;;24.40;73.60;;;;;;5061158;28;20063;-35
2023/08/11 06:47:45;;;;;;;2.67;2.15;;;24.40;73.60;;;;;;5057415;28;20040;-35
2023/08/11 06:50:11;;;;;;;2.27;2.10;;;24.40;73.60;;;;;;5069196;28;20041;-35
2023/08/11 06:52:37;;;;;;;2.47;2.28;;;24.30;73.50;;;;;;5061465;28;20029;-35
2023/08/11 06:55:05;;;;;;;2.67;2.47;;;24.40;74.50;;;;;;5068122;28;20048;-35
2023/08/11 06:57:31;;;;;;;2.40;2.20;;;24.40;73.80;;;;;;5068797;28;20480;-35
2023/08/11 06:59:57;;;;;;;2.45;2.20;;;24.30;73.70;;;;;;5056857;28;20037;-35
2023/08/11 07:02:23;;;;;;;2.10;1.90;;;24.40;73.80;;;;;;5055755;28;20141;-35
2023/08/11 07:04:50;;;;;;;2.85;2.38;;;24.30;73.90;;;;;;5053424;28;20298;-35
2023/08/11 07:07:16;;;;;;;2.10;1.90;;;24.30;73.90;;;;;;5050262;28;20375;-35
2023/08/11 07:09:42;;;;;;;2.50;2.30;;;24.30;73.90;;;;;;5074980;28;20286;-35
2023/08/11 07:12:08;;;;;;;3.10;2.37;;;24.30;74.70;;;;;;5076673;28;20024;-36
2023/08/11 07:14:34;;;;;;;2.20;2.00;;;24.30;73.90;;;;;;5060467;28;20032;-34
2023/08/11 07:17:01;;;;;;;3.10;2.30;;;24.30;73.90;;;;;;5057666;28;20028;-35
2023/08/11 07:19:27;;;;;;;2.77;2.50;;;24.30;73.90;;;;;;5061956;28;20072;-35
2023/08/11 07:21:53;;;;;;;2.42;2.22;;;24.30;73.90;;;;;;5063609;28;20032;-36
2023/08/11 07:24:19;;;;;;;2.58;1.95;;;24.30;73.90;;;;;;5050104;28;20117;-36
2023/08/11 07:26:45;;;;;;;2.50;1.90;;;24.30;73.90;;;;;;5055630;28;20028;-35
2023/08/11 07:29:11;;;;;;;2.33;2.13;;;24.30;74.00;;;;;;5061066;28;20060;-35
2023/08/11 07:31:39;;;;;;;2.53;2.33;;;24.30;73.90;;;;;;5049226;28;20037;-35
2023/08/11 07:34:05;;;;;;;2.20;2.00;;;24.30;74.00;;;;;;5051902;28;20041;-35
2023/08/11 07:36:31;;;;;;;2.17;1.98;;;24.30;74.10;;;;;;5050998;28;20621;-35
2023/08/11 07:38:58;;;;;;;2.42;2.22;;;24.30;74.10;;;;;;5052847;28;20093;-35
2023/08/11 07:41:24;;;;;;;2.30;2.10;;;24.30;74.10;;;;;;5061875;28;20017;-35
2023/08/11 07:43:50;;;;;;;1.93;1.83;;;24.30;74.20;;;;;;5065108;28;20025;-35
2023/08/11 07:46:16;;;;;;;2.75;2.30;;;24.30;74.20;;;;;;5066072;28;20028;-35
2023/08/11 07:48:42;;;;;;;2.10;1.90;;;24.30;74.30;;;;;;5070009;28;20036;-35
2023/08/11 07:51:09;;;;;;;2.33;2.13;;;24.30;74.30;;;;;;5073068;28;20032;-36
2023/08/11 07:53:36;;;;;;;3.28;2.05;;;24.30;74.30;;;;;;5070871;28;20677;-36
2023/08/11 07:56:04;;;;;;;2.10;2.00;;;24.20;74.40;;;;;;5063985;28;20028;-36
2023/08/11 07:58:31;;;;;;;2.22;2.03;;;24.30;74.40;;;;;;5057087;28;20067;-35
2023/08/11 08:00:57;;;;;;;2.60;2.10;;;24.30;74.40;;;;;;5071621;28;20037;-36
2023/08/11 08:03:23;;;;;;;2.47;2.28;;;24.30;74.40;;;;;;5071373;28;20029;-35
2023/08/11 08:05:49;;;;;;;2.47;2.17;;;24.30;74.40;;;;;;5059667;28;20029;-35
2023/08/11 08:08:15;;;;;;;2.57;1.90;;;24.30;74.40;;;;;;5076464;28;20021;-35
2023/08/11 08:10:42;;;;;;;2.35;2.15;;;24.20;74.40;;;;;;5067164;28;20126;-36
2023/08/11 08:13:08;;;;;;;2.35;2.15;;;24.20;74.30;;;;;;5072451;28;20024;-36
2023/08/11 08:15:34;;;;;;;2.30;2.10;;;24.20;74.40;;;;;;5074280;28;20040;-35
2023/08/11 08:18:01;;;;;;;2.75;1.83;;;24.20;74.40;;;;;;5068884;28;20028;-35
2023/08/11 08:20:27;;;;;;;2.50;2.15;;;24.20;74.50;;;;;;5066541;28;20025;-35
2023/08/11 08:22:53;;;;;;;3.00;1.67;;;24.20;74.50;;;;;;5046793;28;20082;-36
2023/08/11 08:25:19;;;;;;;2.20;2.00;;;24.20;74.50;;;;;;5057441;28;20032;-35
2023/08/11 08:27:45;;;;;;;2.20;2.00;;;24.20;74.50;;;;;;5059496;28;20029;-35
2023/08/11 08:30:11;;;;;;;2.20;2.00;;;24.20;74.60;;;;;;5065488;28;20039;-35
2023/08/11 08:32:39;;;;;;;2.63;2.00;;;24.20;74.70;;;;;;5064579;28;20513;-35
2023/08/11 08:35:07;;;;;;;2.00;1.90;;;24.20;74.80;;;;;;5057610;28;20030;-35
2023/08/11 08:37:33;;;;;;;2.30;2.10;;;24.20;74.70;;;;;;5062237;28;20048;-35
2023/08/11 08:40:00;;;;;;;1.83;1.73;;;24.20;74.70;;;;;;5056154;28;20080;-35
2023/08/11 08:42:26;;;;;;;;;;;24.20;74.80;;;;;;5064231;28;20352;-35
2023/08/11 08:44:53;;;;;;;1.90;1.77;;;24.20;74.80;;;;;;5063820;28;19956;-35
2023/08/11 08:47:21;;;;;;;2.40;2.05;;;24.20;74.90;;;;;;5066056;28;20025;-35
2023/08/11 08:49:48;;;;;;;1.85;1.75;;;24.10;74.70;;;;;;5080905;28;20068;-35
2023/08/11 08:52:15;;;;;;;2.08;1.88;;;24.20;74.80;;;;;;5077985;28;20633;-35
2023/08/11 08:54:42;;;;;;;2.38;2.17;;;24.20;74.80;;;;;;5052821;28;20033;-35
2023/08/11 08:57:27;;;;;;;2.85;1.80;;;24.20;74.80;;;;;;5070933;28;20112;-35
2023/08/11 08:59:53;;;;;;;1.90;1.80;;;24.20;74.80;;;;;;5049121;28;20677;-36
2023/08/11 09:02:20;;;;;;;2.40;1.98;;;24.20;74.80;;;;;;5067557;28;20026;-35
2023/08/11 09:04:46;;;;;;;2.10;2.00;;;24.10;74.80;;;;;;5049104;28;20080;-35
2023/08/11 09:07:13;;;;;;;1.90;1.80;;;24.10;74.80;;;;;;5043243;28;20025;-35
2023/08/11 09:09:39;;;;;;;2.05;1.90;;;24.20;75.00;;;;;;5063362;28;20443;-35
2023/08/11 09:12:05;;;;;;;2.33;2.20;;;24.20;75.00;;;;;;5053039;28;20106;-34
2023/08/11 09:14:31;;;;;;;1.90;1.80;;;24.10;75.00;;;;;;5062254;28;20745;-35
2023/08/11 09:17:00;;;;;;;2.03;1.93;;;24.10;75.00;;;;;;5067754;28;20515;-35
2023/08/11 09:19:26;;;;;;;1.70;1.60;;;24.10;75.10;;;;;;5072102;28;20039;-35
2023/08/11 09:21:52;;;;;;;2.70;1.90;;;24.10;75.10;;;;;;5066210;28;20025;-34
2023/08/11 09:24:18;;;;;;;1.90;1.80;;;24.10;75.20;;;;;;5059128;28;20036;-35
2023/08/11 09:26:45;;;;;;;1.88;1.77;;;24.10;75.10;;;;;;5063042;28;20037;-34
2023/08/11 09:29:14;;;;;;;1.80;1.70;;;24.10;75.10;;;;;;5063365;28;20036;-35
2023/08/11 09:31:41;;;;;;;2.13;1.98;;;24.10;75.10;;;;;;5068307;28;20040;-35
2023/08/11 09:34:17;;;;;;;2.17;1.98;;;24.10;75.20;;;;;;5074793;28;20033;-35
2023/08/11 09:36:44;;;;;;;2.13;1.92;;;24.10;75.20;;;;;;5069504;28;20035;-35
2023/08/11 09:39:11;;;;;;;2.17;1.88;;;24.10;75.10;;;;;;5053281;28;20031;-34
2023/08/11 09:41:47;;;;;;;2.07;1.97;;;24.10;75.20;;;;;;5071868;28;20101;-35
2023/08/11 09:44:21;;;;;;;1.95;1.83;;;24.10;75.10;;;;;;5053174;28;20278;-35
2023/08/11 09:46:48;;;;;;;2.00;1.85;;;24.10;75.30;;;;;;5059797;28;20051;-34
2023/08/11 09:49:14;;;;;;;2.03;1.88;;;24.10;75.10;;;;;;5058456;28;20032;-35
2023/08/11 09:51:41;;;;;;;1.90;1.80;;;24.10;75.20;;;;;;5056070;28;20025;-35
2023/08/11 09:54:09;;;;;;;1.88;1.77;;;24.10;75.30;;;;;;5068241;28;20036;-34
2023/08/11 09:56:36;;;;;;;1.98;1.88;;;24.10;75.30;;;;;;5044730;28;20053;-35
2023/08/11 09:59:24;;;;;;;2.30;1.85;;;24.10;75.30;;;;;;5053196;28;20020;-35
2023/08/11 10:01:51;;;;;;;2.00;1.90;;;24.10;75.30;;;;;;5071077;28;20840;-35
2023/08/11 10:04:37;;;;;;;2.08;1.88;;;24.10;75.30;;;;;;5065405;28;20541;-35
2023/08/11 10:07:07;;;;;;;2.05;1.95;;;24.10;75.30;;;;;;5062695;28;20083;-35
2023/08/11 10:09:33;;;;;;;1.90;1.70;;;24.10;75.30;;;;;;5055338;28;20051;-34
2023/08/11 10:11:59;;;;;;;2.78;1.80;;;24.10;75.30;;;;;;5066121;28;20052;-35
2023/08/11 10:14:26;;;;;;;1.90;1.80;;;24.10;75.40;;;;;;5057915;28;20034;-35
2023/08/11 10:16:52;;;;;;;2.20;1.73;;;24.10;75.30;;;;;;5015773;28;20088;-35
2023/08/11 10:19:18;;;;;;;2.08;1.60;;;24.10;75.40;;;;;;5050846;28;20033;-35
2023/08/11 10:21:44;;;;;;;1.83;1.73;;;24.10;75.40;;;;;;5051963;28;20021;-34
2023/08/11 10:24:11;;;;;;;1.55;1.45;;;24.10;75.30;;;;;;5075299;28;20020;-35
2023/08/11 10:26:37;;;;;;;2.00;1.90;;;24.10;75.40;;;;;;5069882;28;20040;-34
2023/08/11 10:29:03;;;;;;;2.20;2.00;;;24.10;75.30;;;;;;5070572;28;20025;-35
2023/08/11 10:31:33;;;;;;;2.33;1.90;;;24.10;75.40;;;;;;5059238;28;20056;-35
2023/08/11 10:34:19;;;;;;;1.90;1.70;;;24.10;75.40;;;;;;5067804;28;20036;-35
2023/08/11 10:36:45;;;;;;;2.13;1.90;;;24.10;75.50;;;;;;4989806;28;20053;-35
2023/08/11 10:39:11;;;;;;;2.15;1.95;;;24.00;75.50;;;;;;4970317;28;20047;-35
2023/08/11 10:41:42;;;;;;;2.30;2.10;;;24.10;75.50;;;;;;4958867;28;20587;-35
2023/08/11 10:44:08;;;;;;;2.00;1.90;;;24.00;75.50;;;;;;4981605;28;20077;-35
2023/08/11 10:46:35;;;;;;;2.05;1.70;;;24.00;75.50;;;;;;4981177;28;20030;-35
2023/08/11 10:49:04;;;;;;;1.83;1.73;;;24.00;75.60;;;;;;4962036;28;20197;-35
2023/08/11 10:51:42;;;;;;;1.85;1.55;;;24.00;75.60;;;;;;4984587;28;20094;-35
2023/08/11 10:54:11;;;;;;;2.00;1.77;;;24.00;75.60;;;;;;4984948;28;20035;-35
2023/08/11 10:56:42;;;;;;;2.00;1.80;;;24.00;75.70;;;;;;4982177;28;20035;-35
2023/08/11 10:59:16;;;;;;;2.17;1.83;;;24.00;75.70;;;;;;4998154;28;20022;-36
2023/08/11 11:01:45;;;;;;;1.88;1.70;;;24.00;75.70;;;;;;4991375;28;20131;-35
2023/08/11 11:04:11;;;;;;;2.95;1.85;;;24.00;75.70;;;;;;4982565;28;20030;-35
2023/08/11 11:06:38;;;;;;;2.27;2.00;;;24.00;75.60;;;;;;4987904;28;20041;-35
2023/08/11 11:09:04;;;;;;;2.58;1.90;;;24.00;75.60;;;;;;4980627;28;20026;-35
2023/08/11 11:11:31;;;;;;;1.92;1.83;;;24.00;75.60;;;;;;4988412;28;20042;-35
2023/08/11 11:13:57;;;;;;;2.22;2.00;;;24.00;75.70;;;;;;5030472;28;20048;-35
2023/08/11 11:16:23;;;;;;;2.17;1.90;;;24.00;75.70;;;;;;5061086;28;20025;-35
2023/08/11 11:18:50;;;;;;;3.07;2.10;;;24.00;75.60;;;;;;5066442;28;20032;-36
2023/08/11 11:21:17;;;;;;;2.20;2.00;;;24.00;75.60;;;;;;5063251;28;20020;-36
2023/08/11 11:23:43;;;;;;;;;;;24.00;75.70;;;;;;5060941;28;20041;-35
2023/08/11 11:26:09;;;;;;;2.28;2.05;;;24.00;75.70;;;;;;5063368;28;19916;-35
2023/08/11 11:28:36;;;;;;;1.90;1.70;;;24.00;75.70;;;;;;5060457;28;20032;-36
2023/08/11 11:31:02;;;;;;;2.28;2.08;;;24.00;75.70;;;;;;5065483;28;20070;-35
2023/08/11 11:33:28;;;;;;;2.17;1.98;;;24.00;75.70;;;;;;5057757;28;20037;-35
2023/08/11 11:35:54;;;;;;;1.75;1.63;;;24.00;75.70;;;;;;5066427;28;20082;-35
2023/08/11 11:38:22;;;;;;;1.80;1.70;;;24.00;75.70;;;;;;5039725;28;20021;-35
2023/08/11 11:40:51;;;;;;;2.05;1.92;;;24.00;75.80;;;;;;5063196;28;20033;-36
2023/08/11 11:43:18;;;;;;;2.30;2.08;;;24.00;75.80;;;;;;5060454;28;20827;-35
2023/08/11 11:45:47;;;;;;;2.43;2.00;;;24.00;75.90;;;;;;5065873;28;20060;-35
2023/08/11 11:48:13;;;;;;;2.08;1.90;;;24.00;75.90;;;;;;5049278;28;20048;-35
2023/08/11 11:50:39;;;;;;;2.22;2.03;;;24.00;75.90;;;;;;5072024;28;20056;-35
2023/08/11 11:53:06;;;;;;;1.85;1.75;;;24.00;75.90;;;;;;5064625;28;20029;-35
2023/08/11 11:55:32;;;;;;;2.53;1.80;;;24.00;75.80;;;;;;5037869;28;20056;-35
2023/08/11 11:57:58;;;;;;;2.27;2.07;;;24.00;75.80;;;;;;5070698;28;20101;-35
2023/08/11 12:00:25;;;;;;;2.25;1.90;;;24.00;75.80;;;;;;5065610;28;20017;-36
2023/08/11 12:02:53;;;;;;;2.25;1.95;;;24.00;75.90;;;;;;5058601;28;20033;-35
2023/08/11 12:05:21;;;;;;;2.95;2.03;;;24.00;75.80;;;;;;5040160;28;20035;-35
2023/08/11 12:07:47;;;;;;;2.33;2.08;;;24.00;75.90;;;;;;5055768;28;20035;-35
2023/08/11 12:10:15;;;;;;;2.75;2.10;;;24.00;76.10;;;;;;5065648;28;20108;-35
2023/08/11 12:12:42;;;;;;;3.50;1.90;;;24.00;76.00;;;;;;5058150;28;20029;-35
2023/08/11 12:15:09;;;;;;;2.35;2.00;;;24.00;76.00;;;;;;5062720;28;20048;-35
2023/08/11 12:17:35;;;;;;;2.15;1.95;;;24.00;76.00;;;;;;5058536;28;20037;-35
2023/08/11 12:20:06;;;;;;;1.90;1.80;;;24.00;76.00;;;;;;5071103;28;20055;-36
2023/08/11 12:22:32;;;;;;;2.05;1.70;;;24.00;76.20;;;;;;5071926;28;20036;-35
2023/08/11 12:24:58;;;;;;;1.90;1.80;;;24.00;76.20;;;;;;5063441;28;20036;-35
2023/08/11 12:27:25;;;;;;;2.15;1.95;;;24.00;76.20;;;;;;5060934;28;20159;-35
2023/08/11 12:29:51;;;;;;;2.60;1.88;;;24.00;76.20;;;;;;5069063;28;20033;-35
2023/08/11 12:32:17;;;;;;;2.03;1.93;;;24.00;76.20;;;;;;5060827;28;20037;-35
2023/08/11 12:34:44;;;;;;;2.20;2.00;;;24.00;76.30;;;;;;5067270;28;20025;-35
2023/08/11 12:37:10;;;;;;;2.38;2.10;;;24.00;76.00;;;;;;5064601;28;20055;-35
2023/08/11 12:39:36;;;;;;;2.55;1.75;;;24.00;76.10;;;;;;5071661;28;20531;-35
2023/08/11 12:42:02;;;;;;;2.78;2.15;;;24.00;76.10;;;;;;5062779;28;20028;-34